createdAt,value
2019-03-31T00:02:26.280Z,4.90
2019-03-31T00:04:54.322Z,4.90
2019-03-31T00:07:22.298Z,4.90
2019-03-31T00:09:50.434Z,4.90
2019-03-31T00:12:18.378Z,4.90
2019-03-31T00:14:46.682Z,4.90
2019-03-31T00:17:14.780Z,4.80
2019-03-31T00:19:42.716Z,4.80
2019-03-31T00:22:12.034Z,4.90
2019-03-31T00:24:40.070Z,4.80
2019-03-31T00:27:08.015Z,4.80
2019-03-31T00:29:35.999Z,4.70
2019-03-31T00:32:04.081Z,4.70
2019-03-31T00:34:32.073Z,4.70
2019-03-31T00:37:01.887Z,4.70
2019-03-31T00:39:29.930Z,4.60
2019-03-31T00:41:57.859Z,4.60
2019-03-31T00:44:25.967Z,4.60
2019-03-31T00:46:53.948Z,4.60
2019-03-31T00:49:23.034Z,4.60
2019-03-31T00:51:51.019Z,4.60
2019-03-31T00:54:18.951Z,4.50
2019-03-31T00:56:47.088Z,4.60
2019-03-31T00:59:15.206Z,4.60
2019-03-31T01:01:52.506Z,4.50
2019-03-31T01:04:24.994Z,4.50
2019-03-31T01:06:53.687Z,4.50
2019-03-31T01:09:26.447Z,4.50
2019-03-31T01:11:55.154Z,4.60
2019-03-31T01:14:23.729Z,4.50
2019-03-31T01:16:53.396Z,4.50
2019-03-31T01:19:22.153Z,4.50
2019-03-31T01:21:50.182Z,4.50
2019-03-31T01:24:19.865Z,4.50
2019-03-31T01:26:47.793Z,4.50
2019-03-31T01:29:16.334Z,4.50
2019-03-31T01:31:50.672Z,4.40
2019-03-31T01:34:14.354Z,4.40
2019-03-31T01:36:42.398Z,4.40
2019-03-31T01:39:10.373Z,4.40
2019-03-31T01:41:38.500Z,4.40
2019-03-31T01:44:06.428Z,4.40
2019-03-31T01:46:34.414Z,4.30
2019-03-31T01:49:02.338Z,4.30
2019-03-31T01:51:30.286Z,4.20
2019-03-31T01:53:58.694Z,4.20
2019-03-31T01:56:26.729Z,4.10
2019-03-31T01:58:54.769Z,4.20
2019-03-31T02:01:22.759Z,4.10
2019-03-31T02:03:50.806Z,4.10
2019-03-31T02:06:20.533Z,4.10
2019-03-31T02:08:48.560Z,4.10
2019-03-31T02:11:16.493Z,4.10
2019-03-31T02:13:44.434Z,4.10
2019-03-31T02:16:13.505Z,4.10
2019-03-31T02:18:41.611Z,4.10
2019-03-31T02:21:09.655Z,4.10
2019-03-31T02:23:37.736Z,4.10
2019-03-31T02:26:05.920Z,4.00
2019-03-31T02:28:34.054Z,4.00
2019-03-31T02:31:02.042Z,3.90
2019-03-31T02:33:30.379Z,3.90
2019-03-31T02:35:58.406Z,3.90
2019-03-31T02:38:26.831Z,3.90
2019-03-31T02:40:55.012Z,3.90
2019-03-31T02:43:23.247Z,3.90
2019-03-31T02:45:51.252Z,3.90
2019-03-31T02:48:19.303Z,3.80
2019-03-31T02:50:51.942Z,3.80
2019-03-31T02:53:20.595Z,3.80
2019-03-31T02:55:48.842Z,3.90
2019-03-31T02:58:17.494Z,3.90
2019-03-31T03:00:45.768Z,3.90
2019-03-31T03:03:15.874Z,3.90
2019-03-31T03:05:44.516Z,3.90
2019-03-31T03:08:13.659Z,4.00
2019-03-31T03:10:43.636Z,4.00
2019-03-31T03:13:13.637Z,4.00
2019-03-31T03:16:27.073Z,4.00
2019-03-31T03:18:55.516Z,4.00
2019-03-31T03:21:24.933Z,4.00
2019-03-31T03:23:53.806Z,3.90
2019-03-31T03:26:22.043Z,4.00
2019-03-31T03:28:50.345Z,3.90
2019-03-31T03:31:19.009Z,4.00
2019-03-31T03:33:47.411Z,3.90
2019-03-31T03:36:15.564Z,3.90
2019-03-31T03:38:44.256Z,4.00
2019-03-31T03:41:12.210Z,3.90
2019-03-31T03:43:53.978Z,3.90
2019-03-31T03:46:10.227Z,3.90
2019-03-31T03:48:38.159Z,3.90
2019-03-31T03:51:06.187Z,3.90
2019-03-31T03:53:34.293Z,3.80
2019-03-31T03:56:02.443Z,3.80
2019-03-31T03:58:30.484Z,3.80
2019-03-31T04:00:58.675Z,3.80
2019-03-31T04:03:30.346Z,3.80
2019-03-31T04:05:58.140Z,3.80
2019-03-31T04:08:26.148Z,3.80
2019-03-31T04:11:13.570Z,3.80
2019-03-31T04:13:41.647Z,3.80
2019-03-31T04:16:09.828Z,3.80
2019-03-31T04:18:38.571Z,3.80
2019-03-31T04:21:06.998Z,3.70
2019-03-31T04:23:34.936Z,3.80
2019-03-31T04:26:02.983Z,3.70
2019-03-31T04:28:30.964Z,3.70
2019-03-31T04:30:58.807Z,3.70
2019-03-31T04:33:26.749Z,3.70
2019-03-31T04:35:55.003Z,3.70
2019-03-31T04:38:23.043Z,3.70
2019-03-31T04:40:50.991Z,3.70
2019-03-31T04:43:18.964Z,3.70
2019-03-31T04:45:46.909Z,3.70
2019-03-31T04:48:14.947Z,3.70
2019-03-31T04:50:43.291Z,3.70
2019-03-31T04:53:11.230Z,3.70
2019-03-31T04:55:39.156Z,3.70
2019-03-31T04:58:07.310Z,3.70
2019-03-31T05:00:35.264Z,3.70
2019-03-31T05:03:03.308Z,3.70
2019-03-31T05:05:31.442Z,3.70
2019-03-31T05:07:59.377Z,3.70
2019-03-31T05:10:27.322Z,3.80
2019-03-31T05:12:55.354Z,3.80
2019-03-31T05:15:25.094Z,3.80
2019-03-31T05:17:53.366Z,3.90
2019-03-31T05:20:22.762Z,3.90
2019-03-31T05:22:52.891Z,3.90
2019-03-31T05:25:20.569Z,3.90
2019-03-31T05:27:48.732Z,4.00
2019-03-31T05:30:18.502Z,4.00
2019-03-31T05:32:46.544Z,4.10
2019-03-31T05:35:14.510Z,4.00
2019-03-31T05:37:50.944Z,4.10
2019-03-31T05:40:12.414Z,4.20
2019-03-31T05:42:40.410Z,4.30
2019-03-31T05:45:10.162Z,4.30
2019-03-31T05:47:38.209Z,4.40
2019-03-31T05:50:06.494Z,4.50
2019-03-31T05:52:34.417Z,4.60
2019-03-31T05:55:02.451Z,4.70
2019-03-31T05:57:32.272Z,4.80
2019-03-31T06:00:00.526Z,4.90
2019-03-31T06:02:28.563Z,5.00
2019-03-31T06:04:56.547Z,5.20
2019-03-31T06:07:24.579Z,5.30
2019-03-31T06:09:52.520Z,5.40
2019-03-31T06:12:20.864Z,5.50
2019-03-31T06:14:48.906Z,5.70
2019-03-31T06:17:17.227Z,5.80
2019-03-31T06:19:45.911Z,5.90
2019-03-31T06:22:13.845Z,6.00
2019-03-31T06:24:41.892Z,6.20
2019-03-31T06:27:09.878Z,6.20
2019-03-31T06:29:37.964Z,6.30
2019-03-31T06:32:06.001Z,6.50
2019-03-31T06:34:46.695Z,6.60
2019-03-31T06:37:05.050Z,6.60
2019-03-31T06:39:34.383Z,6.70
2019-03-31T06:42:02.427Z,6.80
2019-03-31T06:44:30.522Z,6.90
2019-03-31T06:46:58.579Z,6.90
2019-03-31T06:49:26.530Z,7.10
2019-03-31T06:51:54.462Z,7.20
2019-03-31T06:54:22.553Z,7.30
2019-03-31T06:56:50.565Z,7.40
2019-03-31T06:59:18.509Z,7.50
2019-03-31T07:01:46.463Z,7.60
2019-03-31T07:04:14.558Z,7.70
2019-03-31T07:06:43.798Z,7.80
2019-03-31T07:09:11.745Z,7.90
2019-03-31T07:11:39.732Z,7.90
2019-03-31T07:14:10.614Z,8.00
2019-03-31T07:16:38.734Z,8.10
2019-03-31T07:19:07.221Z,8.10
2019-03-31T07:21:35.158Z,8.20
2019-03-31T07:24:03.091Z,8.30
2019-03-31T07:26:31.103Z,8.40
2019-03-31T07:28:59.158Z,8.50
2019-03-31T07:31:27.106Z,8.60
2019-03-31T07:33:55.166Z,8.70
2019-03-31T07:36:23.016Z,8.80
2019-03-31T07:38:51.161Z,8.90
2019-03-31T07:41:19.312Z,9.00
2019-03-31T07:43:47.204Z,9.10
2019-03-31T07:46:15.251Z,9.20
2019-03-31T07:48:43.214Z,9.30
2019-03-31T07:51:11.164Z,9.40
2019-03-31T07:53:39.198Z,9.50
2019-03-31T07:56:07.303Z,9.60
2019-03-31T07:58:35.342Z,9.70
2019-03-31T08:01:03.377Z,9.80
2019-03-31T08:03:31.389Z,9.90
2019-03-31T08:05:59.435Z,10.00
2019-03-31T08:08:27.361Z,10.20
2019-03-31T08:10:55.466Z,10.20
2019-03-31T08:13:23.502Z,10.30
2019-03-31T08:15:51.434Z,10.30
2019-03-31T08:18:19.710Z,10.40
2019-03-31T08:20:48.207Z,10.50
2019-03-31T08:23:17.339Z,10.70
2019-03-31T08:25:45.340Z,10.80
2019-03-31T08:28:13.444Z,10.90
2019-03-31T08:30:41.323Z,11.00
2019-03-31T08:33:11.233Z,11.10
2019-03-31T08:35:47.332Z,11.20
2019-03-31T08:38:08.919Z,11.30
2019-03-31T08:40:36.899Z,11.30
2019-03-31T08:43:06.061Z,11.40
2019-03-31T08:45:34.038Z,11.50
2019-03-31T08:48:02.138Z,11.60
2019-03-31T08:50:30.097Z,11.80
2019-03-31T08:52:58.270Z,11.90
2019-03-31T08:55:26.528Z,12.00
2019-03-31T08:57:56.011Z,12.10
2019-03-31T09:00:58.617Z,12.30
2019-03-31T09:03:26.554Z,12.40
2019-03-31T09:06:01.837Z,12.60
2019-03-31T09:08:24.387Z,12.60
2019-03-31T09:10:52.426Z,12.70
2019-03-31T09:13:20.366Z,12.80
2019-03-31T09:15:49.454Z,12.90
2019-03-31T09:18:17.966Z,13.00
2019-03-31T09:20:47.198Z,13.10
2019-03-31T09:23:15.179Z,13.20
2019-03-31T09:25:43.135Z,13.30
2019-03-31T09:28:11.382Z,13.40
2019-03-31T09:30:41.313Z,13.60
2019-03-31T09:33:09.353Z,13.60
2019-03-31T09:35:37.404Z,13.80
2019-03-31T09:38:05.475Z,13.80
2019-03-31T09:40:33.513Z,13.90
2019-03-31T09:43:01.482Z,14.00
2019-03-31T09:45:29.855Z,14.10
2019-03-31T09:47:57.897Z,14.20
2019-03-31T09:50:25.834Z,14.20
2019-03-31T09:52:54.096Z,14.40
2019-03-31T09:55:23.211Z,14.50
2019-03-31T09:57:53.110Z,14.60
2019-03-31T10:00:36.122Z,14.70
2019-03-31T10:03:05.268Z,14.80
2019-03-31T10:05:33.210Z,14.90
2019-03-31T10:08:01.286Z,15.00
2019-03-31T10:10:31.963Z,15.10
2019-03-31T10:13:00.265Z,15.10
2019-03-31T10:15:28.582Z,15.20
2019-03-31T10:17:56.776Z,15.40
2019-03-31T10:20:24.736Z,15.50
2019-03-31T10:22:52.814Z,15.50
2019-03-31T10:25:20.755Z,15.60
2019-03-31T10:27:48.897Z,15.70
2019-03-31T10:30:23.278Z,15.80
2019-03-31T10:32:51.313Z,15.90
2019-03-31T10:35:19.153Z,15.90
2019-03-31T10:37:47.171Z,16.00
2019-03-31T10:40:15.520Z,16.00
2019-03-31T10:42:43.561Z,16.10
2019-03-31T10:45:11.943Z,16.20
2019-03-31T10:47:39.977Z,16.30
2019-03-31T10:50:08.214Z,16.40
2019-03-31T10:52:36.329Z,16.50
2019-03-31T10:55:05.495Z,16.60
2019-03-31T10:57:33.458Z,16.60
2019-03-31T11:00:01.734Z,16.70
2019-03-31T11:02:29.715Z,16.70
2019-03-31T11:04:57.665Z,16.80
2019-03-31T11:07:25.750Z,16.80
2019-03-31T11:09:53.704Z,16.90
2019-03-31T11:12:23.448Z,16.90
2019-03-31T11:14:51.434Z,16.90
2019-03-31T11:17:19.384Z,16.80
2019-03-31T11:19:48.377Z,17.00
2019-03-31T11:22:42.755Z,17.10
2019-03-31T11:25:20.754Z,17.20
2019-03-31T11:27:43.816Z,17.20
2019-03-31T11:30:12.507Z,17.20
2019-03-31T11:32:40.489Z,17.20
2019-03-31T11:35:08.432Z,17.30
2019-03-31T11:37:36.375Z,17.30
2019-03-31T11:40:05.716Z,17.30
2019-03-31T11:42:33.752Z,17.30
2019-03-31T11:45:01.806Z,17.40
2019-03-31T11:47:29.771Z,17.50
2019-03-31T11:49:57.697Z,17.50
2019-03-31T11:52:25.736Z,17.60
2019-03-31T11:54:53.888Z,17.70
2019-03-31T11:57:21.860Z,17.70
2019-03-31T11:59:51.688Z,17.90
2019-03-31T12:02:26.936Z,17.90
2019-03-31T12:04:51.523Z,18.00
2019-03-31T12:07:28.228Z,18.10
2019-03-31T12:09:51.594Z,18.10
2019-03-31T12:12:19.529Z,18.00
2019-03-31T12:14:59.909Z,18.00
2019-03-31T12:17:17.274Z,18.10
2019-03-31T12:19:48.700Z,18.20
2019-03-31T12:22:16.160Z,18.30
2019-03-31T12:24:44.117Z,18.20
2019-03-31T12:27:12.488Z,18.20
2019-03-31T12:29:40.531Z,18.30
2019-03-31T12:32:08.592Z,18.30
2019-03-31T12:34:36.824Z,18.50
2019-03-31T12:37:04.764Z,18.50
2019-03-31T12:39:32.804Z,18.50
2019-03-31T12:42:01.160Z,18.70
2019-03-31T12:44:29.112Z,18.80
2019-03-31T12:46:57.045Z,18.80
2019-03-31T12:49:25.289Z,18.90
2019-03-31T12:51:55.097Z,18.80
2019-03-31T12:54:22.968Z,19.00
2019-03-31T12:56:50.995Z,18.90
2019-03-31T12:59:20.144Z,19.00
2019-03-31T13:01:48.112Z,19.10
2019-03-31T13:04:17.096Z,19.10
2019-03-31T13:06:45.272Z,19.20
2019-03-31T13:09:13.308Z,19.20
2019-03-31T13:11:42.383Z,19.20
2019-03-31T13:14:10.340Z,19.10
2019-03-31T13:16:38.293Z,19.20
2019-03-31T13:19:06.486Z,19.30
2019-03-31T13:21:35.013Z,19.20
2019-03-31T13:24:03.181Z,19.30
2019-03-31T13:26:31.192Z,19.30
2019-03-31T13:28:59.235Z,19.20
2019-03-31T13:31:27.178Z,19.20
2019-03-31T13:33:55.377Z,19.30
2019-03-31T13:36:23.312Z,19.30
2019-03-31T13:38:53.044Z,19.20
2019-03-31T13:41:22.835Z,19.30
2019-03-31T13:43:50.875Z,19.10
2019-03-31T13:46:18.933Z,19.10
2019-03-31T13:48:46.893Z,19.10
2019-03-31T13:51:15.040Z,19.20
2019-03-31T13:53:43.090Z,19.20
2019-03-31T13:56:11.494Z,19.30
2019-03-31T13:58:41.540Z,19.40
2019-03-31T14:01:09.506Z,19.30
2019-03-31T14:03:37.490Z,19.30
2019-03-31T14:06:07.241Z,19.30
2019-03-31T14:08:35.183Z,19.40
2019-03-31T14:11:03.954Z,19.50
2019-03-31T14:13:33.586Z,19.40
2019-03-31T14:16:01.558Z,19.60
2019-03-31T14:18:29.636Z,19.60
2019-03-31T14:20:57.856Z,19.40
2019-03-31T14:23:26.476Z,19.30
2019-03-31T14:25:54.657Z,19.20
2019-03-31T14:28:22.698Z,19.50
2019-03-31T14:30:50.654Z,20.00
2019-03-31T14:33:18.802Z,20.40
2019-03-31T14:35:46.746Z,20.80
2019-03-31T14:38:14.899Z,21.40
2019-03-31T14:40:42.910Z,21.20
2019-03-31T14:43:10.878Z,20.90
2019-03-31T14:45:40.626Z,21.10
2019-03-31T14:48:09.836Z,21.40
2019-03-31T14:50:38.728Z,21.80
2019-03-31T14:53:07.284Z,21.70
2019-03-31T14:55:35.437Z,21.80
2019-03-31T14:58:03.608Z,22.30
2019-03-31T15:00:31.750Z,22.20
2019-03-31T15:02:59.967Z,22.20
2019-03-31T15:05:28.002Z,22.60
2019-03-31T15:07:58.609Z,22.70
2019-03-31T15:10:27.219Z,22.90
2019-03-31T15:12:55.162Z,23.10
2019-03-31T15:15:23.199Z,23.00
2019-03-31T15:17:51.486Z,23.50
2019-03-31T15:20:19.745Z,23.60
2019-03-31T15:22:51.258Z,23.60
2019-03-31T15:25:17.827Z,23.60
2019-03-31T15:27:45.867Z,23.40
2019-03-31T15:30:14.137Z,23.50
2019-03-31T15:32:42.214Z,23.40
2019-03-31T15:35:10.278Z,23.50
2019-03-31T15:37:38.210Z,23.40
2019-03-31T15:40:06.498Z,23.60
2019-03-31T15:42:34.465Z,23.70
2019-03-31T15:45:02.426Z,23.80
2019-03-31T15:47:30.426Z,23.40
2019-03-31T15:49:58.382Z,23.50
2019-03-31T15:52:26.427Z,23.60
2019-03-31T15:54:54.560Z,23.50
2019-03-31T15:57:22.514Z,22.00
2019-03-31T15:59:49.465Z,21.20
2019-03-31T16:02:18.154Z,20.30
2019-03-31T16:04:46.182Z,19.80
2019-03-31T16:07:15.338Z,19.40
2019-03-31T16:09:42.816Z,18.90
2019-03-31T16:12:10.212Z,18.70
2019-03-31T16:14:37.594Z,18.40
2019-03-31T16:17:05.254Z,18.10
2019-03-31T16:19:32.657Z,18.00
2019-03-31T16:22:00.148Z,17.70
2019-03-31T16:24:37.489Z,17.60
2019-03-31T16:27:04.902Z,17.50
2019-03-31T16:29:32.291Z,17.40
2019-03-31T16:31:59.986Z,17.20
2019-03-31T16:34:27.428Z,17.10
2019-03-31T16:36:54.810Z,17.00
2019-03-31T16:39:22.261Z,16.90
2019-03-31T16:41:49.665Z,16.80
2019-03-31T16:44:17.086Z,16.60
2019-03-31T16:46:44.543Z,16.50
2019-03-31T16:49:11.954Z,16.50
2019-03-31T16:51:40.446Z,16.40
2019-03-31T16:54:08.164Z,16.20
2019-03-31T16:56:35.614Z,16.20
2019-03-31T16:59:04.727Z,16.10
2019-03-31T17:01:32.310Z,16.00
2019-03-31T17:03:59.690Z,16.00
2019-03-31T17:06:27.096Z,16.00
2019-03-31T17:08:54.540Z,15.80
2019-03-31T17:11:21.922Z,15.80
2019-03-31T17:13:49.331Z,15.60
2019-03-31T17:16:16.866Z,15.50
2019-03-31T17:18:44.270Z,15.50
2019-03-31T17:21:12.469Z,15.30
2019-03-31T17:23:40.366Z,15.30
2019-03-31T17:26:07.755Z,15.30
2019-03-31T17:28:35.162Z,15.10
2019-03-31T17:31:02.753Z,15.00
2019-03-31T17:33:30.371Z,14.90
2019-03-31T17:35:57.843Z,14.80
2019-03-31T17:38:26.614Z,14.70
2019-03-31T17:40:54.012Z,14.60
2019-03-31T17:43:21.403Z,14.50
2019-03-31T17:45:48.839Z,14.30
2019-03-31T17:48:16.235Z,14.20
2019-03-31T17:50:43.620Z,14.10
2019-03-31T17:53:11.466Z,13.90
2019-03-31T17:55:38.854Z,13.70
2019-03-31T17:58:06.250Z,13.70
2019-03-31T18:00:33.851Z,13.60
2019-03-31T18:03:01.242Z,13.40
2019-03-31T18:05:28.641Z,13.30
2019-03-31T18:07:56.230Z,13.10
2019-03-31T18:10:23.638Z,13.00
2019-03-31T18:12:51.039Z,12.90
2019-03-31T18:15:18.487Z,12.80
2019-03-31T18:17:45.884Z,12.70
2019-03-31T18:20:13.294Z,12.50
2019-03-31T18:22:40.899Z,12.50
2019-03-31T18:25:09.027Z,12.40
2019-03-31T18:27:36.426Z,12.30
2019-03-31T18:30:05.673Z,12.20
2019-03-31T18:32:33.065Z,12.10
2019-03-31T18:35:00.592Z,11.90
2019-03-31T18:37:28.034Z,11.80
2019-03-31T18:39:57.258Z,11.70
2019-03-31T18:42:24.674Z,11.60
2019-03-31T18:44:52.140Z,11.50
2019-03-31T18:47:19.563Z,11.50
2019-03-31T18:49:47.111Z,11.30
2019-03-31T18:52:14.650Z,11.30
2019-03-31T18:55:10.995Z,11.20
2019-03-31T18:57:57.950Z,11.20
2019-03-31T19:00:43.938Z,11.00
2019-03-31T19:03:36.933Z,11.00
2019-03-31T19:06:32.916Z,10.80
2019-03-31T19:09:34.838Z,10.80
2019-03-31T19:12:21.160Z,10.60
2019-03-31T19:15:08.044Z,10.50
2019-03-31T19:17:55.150Z,10.40
2019-03-31T19:20:31.284Z,10.30
2019-03-31T19:23:19.089Z,10.20
2019-03-31T19:26:17.851Z,10.20
2019-03-31T19:29:03.636Z,10.20
2019-03-31T19:31:53.635Z,10.10
2019-03-31T19:34:43.439Z,10.00
2019-03-31T19:37:18.265Z,9.90
2019-03-31T19:40:11.155Z,9.90
2019-03-31T19:42:58.264Z,9.80
2019-03-31T19:45:55.702Z,9.70
2019-03-31T19:48:36.502Z,9.60
2019-03-31T19:51:22.020Z,9.50
2019-03-31T19:54:02.922Z,9.40
2019-03-31T19:56:43.265Z,9.30
2019-03-31T19:59:27.208Z,9.30
2019-03-31T20:02:25.266Z,9.30
2019-03-31T20:05:21.009Z,9.20
2019-03-31T20:08:04.697Z,9.10
2019-03-31T20:10:52.015Z,9.00
2019-03-31T20:13:35.882Z,9.00
2019-03-31T20:16:15.183Z,9.00
2019-03-31T20:18:53.897Z,8.90
2019-03-31T20:21:41.572Z,8.90
2019-03-31T20:24:16.670Z,8.90
2019-03-31T20:27:07.305Z,8.80
2019-03-31T20:30:01.755Z,8.70
2019-03-31T20:32:54.774Z,8.60
2019-03-31T20:35:47.534Z,8.60
2019-03-31T20:38:21.869Z,8.50
2019-03-31T20:41:08.784Z,8.50
2019-03-31T20:43:43.128Z,8.50
2019-03-31T20:46:10.521Z,8.50
2019-03-31T20:48:37.918Z,8.40
2019-03-31T20:51:06.052Z,8.40
2019-03-31T20:53:33.447Z,8.30
2019-03-31T20:56:00.862Z,8.30
2019-03-31T20:58:28.297Z,8.20
2019-03-31T21:00:55.692Z,8.20
2019-03-31T21:03:24.838Z,8.10
2019-03-31T21:05:52.298Z,8.10
2019-03-31T21:08:19.705Z,8.10
2019-03-31T21:10:47.107Z,8.00
2019-03-31T21:13:14.512Z,8.00
2019-03-31T21:15:41.915Z,8.00
2019-03-31T21:18:09.294Z,7.90
2019-03-31T21:20:36.782Z,7.90
2019-03-31T21:23:04.412Z,7.80
2019-03-31T21:25:32.506Z,7.80
2019-03-31T21:28:00.131Z,7.70
2019-03-31T21:30:27.527Z,7.60
2019-03-31T21:32:54.915Z,7.60
2019-03-31T21:35:22.738Z,7.50
2019-03-31T21:37:50.285Z,7.50
2019-03-31T21:40:17.656Z,7.50
2019-03-31T21:42:45.217Z,7.40
2019-03-31T21:45:12.603Z,7.50
2019-03-31T21:47:40.012Z,7.40
2019-03-31T21:50:08.171Z,7.40
2019-03-31T21:52:35.560Z,7.30
2019-03-31T21:55:03.067Z,7.30
2019-03-31T21:57:30.612Z,7.30
2019-03-31T21:59:58.001Z,7.30
2019-03-31T22:02:25.369Z,7.30
2019-03-31T22:04:52.819Z,7.20
2019-03-31T22:07:20.208Z,7.20
2019-03-31T22:09:47.603Z,7.10
2019-03-31T22:12:15.074Z,7.10
2019-03-31T22:14:42.472Z,6.90
2019-03-31T22:17:09.872Z,6.80
2019-03-31T22:19:37.329Z,6.80
2019-03-31T22:22:04.895Z,6.80
2019-03-31T22:24:32.520Z,6.80
2019-03-31T22:26:59.949Z,6.80
2019-03-31T22:29:27.361Z,6.80
2019-03-31T22:31:54.755Z,6.80
2019-03-31T22:34:22.445Z,6.70
2019-03-31T22:36:49.839Z,6.70
2019-03-31T22:39:17.231Z,6.70
2019-03-31T22:41:44.666Z,6.70
2019-03-31T22:44:12.054Z,6.60
2019-03-31T22:46:53.442Z,6.70
2019-03-31T22:49:08.694Z,6.70
2019-03-31T22:51:36.148Z,6.70
2019-03-31T22:54:03.448Z,6.60
2019-03-31T22:56:31.022Z,6.60
2019-03-31T22:58:58.424Z,6.60
2019-03-31T23:01:25.864Z,6.60
2019-03-31T23:03:53.283Z,6.50
2019-03-31T23:06:20.678Z,6.50
2019-03-31T23:08:48.076Z,6.60
2019-03-31T23:11:16.688Z,6.50
2019-03-31T23:13:44.064Z,6.50
2019-03-31T23:16:11.449Z,6.50
2019-03-31T23:18:39.110Z,6.50
2019-03-31T23:21:06.499Z,6.40
2019-03-31T23:23:34.256Z,6.40
2019-03-31T23:26:02.019Z,6.40
2019-03-31T23:28:29.435Z,6.30
2019-03-31T23:30:56.823Z,6.20
2019-03-31T23:33:24.267Z,6.20
2019-03-31T23:35:51.659Z,6.20
2019-03-31T23:38:19.057Z,6.10
2019-03-31T23:40:46.483Z,6.10
2019-03-31T23:43:13.883Z,6.20
2019-03-31T23:45:41.303Z,6.10
2019-03-31T23:48:08.855Z,6.10
2019-03-31T23:50:36.243Z,6.10
2019-03-31T23:53:03.635Z,6.10
2019-03-31T23:55:31.088Z,6.10
2019-03-31T23:57:58.499Z,6.00
